sensor_id;sensor_type;location;lat;lon;timestamp;temperature;humidity
14095;DHT22;18096;48.142;16.290;2023-10-13T00:01:58;17.50;99.90
14095;DHT22;18096;48.142;16.290;2023-10-13T00:04:28;17.50;99.90
14095;DHT22;18096;48.142;16.290;2023-10-13T00:06:57;17.50;99.90
14095;DHT22;18096;48.142;16.290;2023-10-13T00:09:26;17.40;99.90
14095;DHT22;18096;48.142;16.290;2023-10-13T00:11:58;17.40;99.90
14095;DHT22;18096;48.142;16.290;2023-10-13T00:14:24;17.50;99.90
14095;DHT22;18096;48.142;16.290;2023-10-13T00:17:04;17.50;99.90
14095;DHT22;18096;48.142;16.290;2023-10-13T00:19:34;17.50;99.90
14095;DHT22;18096;48.142;16.290;2023-10-13T00:22:08;17.50;99.90
14095;DHT22;18096;48.142;16.290;2023-10-13T00:24:39;17.50;99.90
14095;DHT22;18096;48.142;16.290;2023-10-13T00:27:18;17.50;99.90
14095;DHT22;18096;48.142;16.290;2023-10-13T00:29:53;17.50;99.90
14095;DHT22;18096;48.142;16.290;2023-10-13T00:32:39;17.50;99.90
14095;DHT22;18096;48.142;16.290;2023-10-13T00:35:09;17.40;99.90
14095;DHT22;18096;48.142;16.290;2023-10-13T00:37:35;17.40;99.90
14095;DHT22;18096;48.142;16.290;2023-10-13T00:40:08;17.40;99.90
14095;DHT22;18096;48.142;16.290;2023-10-13T00:42:44;17.40;99.90
14095;DHT22;18096;48.142;16.290;2023-10-13T00:45:18;17.40;99.90
14095;DHT22;18096;48.142;16.290;2023-10-13T00:47:44;17.50;99.90
14095;DHT22;18096;48.142;16.290;2023-10-13T00:50:15;17.50;99.90
14095;DHT22;18096;48.142;16.290;2023-10-13T00:52:44;17.50;99.90
14095;DHT22;18096;48.142;16.290;2023-10-13T00:55:13;17.50;99.90
14095;DHT22;18096;48.142;16.290;2023-10-13T00:57:40;17.60;99.90
14095;DHT22;18096;48.142;16.290;2023-10-13T01:00:06;17.60;99.90
14095;DHT22;18096;48.142;16.290;2023-10-13T01:02:58;17.60;99.90
14095;DHT22;18096;48.142;16.290;2023-10-13T01:05:33;17.50;99.90
14095;DHT22;18096;48.142;16.290;2023-10-13T01:08:02;17.50;99.90
14095;DHT22;18096;48.142;16.290;2023-10-13T01:10:28;17.50;99.90
14095;DHT22;18096;48.142;16.290;2023-10-13T01:12:58;17.50;99.90
14095;DHT22;18096;48.142;16.290;2023-10-13T01:15:27;17.50;99.90
14095;DHT22;18096;48.142;16.290;2023-10-13T01:18:09;17.40;99.90
14095;DHT22;18096;48.142;16.290;2023-10-13T01:20:42;17.50;99.90
14095;DHT22;18096;48.142;16.290;2023-10-13T01:23:14;17.50;99.90
14095;DHT22;18096;48.142;16.290;2023-10-13T01:25:50;17.40;99.90
14095;DHT22;18096;48.142;16.290;2023-10-13T01:28:16;17.40;99.90
14095;DHT22;18096;48.142;16.290;2023-10-13T01:30:45;17.40;99.90
14095;DHT22;18096;48.142;16.290;2023-10-13T01:33:18;17.40;99.90
14095;DHT22;18096;48.142;16.290;2023-10-13T01:35:52;17.40;99.90
14095;DHT22;18096;48.142;16.290;2023-10-13T01:38:18;17.40;99.90
14095;DHT22;18096;48.142;16.290;2023-10-13T01:40:44;17.40;99.90
14095;DHT22;18096;48.142;16.290;2023-10-13T01:43:10;17.40;99.90
14095;DHT22;18096;48.142;16.290;2023-10-13T01:45:40;17.30;99.90
14095;DHT22;18096;48.142;16.290;2023-10-13T01:48:17;17.40;99.90
14095;DHT22;18096;48.142;16.290;2023-10-13T01:50:45;17.40;99.90
14095;DHT22;18096;48.142;16.290;2023-10-13T01:53:21;17.30;99.90
14095;DHT22;18096;48.142;16.290;2023-10-13T01:55:48;17.40;99.90
14095;DHT22;18096;48.142;16.290;2023-10-13T01:58:16;17.30;99.90
14095;DHT22;18096;48.142;16.290;2023-10-13T02:00:43;17.30;99.90
14095;DHT22;18096;48.142;16.290;2023-10-13T02:03:10;17.30;99.90
14095;DHT22;18096;48.142;16.290;2023-10-13T02:05:48;17.30;99.90
14095;DHT22;18096;48.142;16.290;2023-10-13T02:08:18;17.30;99.90
14095;DHT22;18096;48.142;16.290;2023-10-13T02:10:57;17.30;99.90
14095;DHT22;18096;48.142;16.290;2023-10-13T02:13:24;17.30;99.90
14095;DHT22;18096;48.142;16.290;2023-10-13T02:15:55;17.30;99.90
14095;DHT22;18096;48.142;16.290;2023-10-13T02:18:23;17.30;99.90
14095;DHT22;18096;48.142;16.290;2023-10-13T02:21:07;17.30;99.90
14095;DHT22;18096;48.142;16.290;2023-10-13T02:23:39;17.30;99.90
14095;DHT22;18096;48.142;16.290;2023-10-13T02:26:11;17.30;99.90
14095;DHT22;18096;48.142;16.290;2023-10-13T02:28:58;17.30;99.90
14095;DHT22;18096;48.142;16.290;2023-10-13T02:31:27;17.30;99.90
14095;DHT22;18096;48.142;16.290;2023-10-13T02:33:53;17.20;99.90
14095;DHT22;18096;48.142;16.290;2023-10-13T02:36:19;17.20;99.90
14095;DHT22;18096;48.142;16.290;2023-10-13T02:38:49;17.20;99.90
14095;DHT22;18096;48.142;16.290;2023-10-13T02:41:20;17.20;99.90
14095;DHT22;18096;48.142;16.290;2023-10-13T02:43:53;17.20;99.90
14095;DHT22;18096;48.142;16.290;2023-10-13T02:46:20;17.10;99.90
14095;DHT22;18096;48.142;16.290;2023-10-13T02:48:48;17.10;99.90
14095;DHT22;18096;48.142;16.290;2023-10-13T02:51:19;17.10;99.90
14095;DHT22;18096;48.142;16.290;2023-10-13T02:53:47;17.10;99.90
14095;DHT22;18096;48.142;16.290;2023-10-13T02:56:18;17.10;99.90
14095;DHT22;18096;48.142;16.290;2023-10-13T02:58:49;17.10;99.90
14095;DHT22;18096;48.142;16.290;2023-10-13T03:01:34;17.00;99.90
14095;DHT22;18096;48.142;16.290;2023-10-13T03:04:01;17.00;99.90
14095;DHT22;18096;48.142;16.290;2023-10-13T03:06:28;17.00;99.90
14095;DHT22;18096;48.142;16.290;2023-10-13T03:09:09;17.00;99.90
14095;DHT22;18096;48.142;16.290;2023-10-13T03:11:53;17.00;99.90
14095;DHT22;18096;48.142;16.290;2023-10-13T03:14:21;16.90;99.90
14095;DHT22;18096;48.142;16.290;2023-10-13T03:16:55;16.90;99.90
14095;DHT22;18096;48.142;16.290;2023-10-13T03:19:21;16.90;99.90
14095;DHT22;18096;48.142;16.290;2023-10-13T03:21:47;16.90;99.90
14095;DHT22;18096;48.142;16.290;2023-10-13T03:24:30;16.90;99.90
14095;DHT22;18096;48.142;16.290;2023-10-13T03:27:02;16.90;99.90
14095;DHT22;18096;48.142;16.290;2023-10-13T03:29:45;16.90;99.90
14095;DHT22;18096;48.142;16.290;2023-10-13T03:32:19;16.90;99.90
14095;DHT22;18096;48.142;16.290;2023-10-13T03:34:46;16.90;99.90
14095;DHT22;18096;48.142;16.290;2023-10-13T03:37:20;16.90;99.90
14095;DHT22;18096;48.142;16.290;2023-10-13T03:40:09;16.90;99.90
14095;DHT22;18096;48.142;16.290;2023-10-13T03:42:51;16.90;99.90
14095;DHT22;18096;48.142;16.290;2023-10-13T03:45:45;16.90;99.90
14095;DHT22;18096;48.142;16.290;2023-10-13T03:48:17;16.90;99.90
14095;DHT22;18096;48.142;16.290;2023-10-13T03:50:58;16.90;99.90
14095;DHT22;18096;48.142;16.290;2023-10-13T03:53:34;16.90;99.90
14095;DHT22;18096;48.142;16.290;2023-10-13T03:56:07;16.90;99.90
14095;DHT22;18096;48.142;16.290;2023-10-13T03:58:52;16.90;99.90
14095;DHT22;18096;48.142;16.290;2023-10-13T04:01:20;16.90;99.90
14095;DHT22;18096;48.142;16.290;2023-10-13T04:03:58;16.90;99.90
14095;DHT22;18096;48.142;16.290;2023-10-13T04:06:44;16.90;99.90
14095;DHT22;18096;48.142;16.290;2023-10-13T04:09:20;16.90;99.90
14095;DHT22;18096;48.142;16.290;2023-10-13T04:11:55;16.90;99.90
14095;DHT22;18096;48.142;16.290;2023-10-13T04:14:30;16.90;99.90
14095;DHT22;18096;48.142;16.290;2023-10-13T04:17:14;16.90;99.90
14095;DHT22;18096;48.142;16.290;2023-10-13T04:19:44;16.90;99.90
14095;DHT22;18096;48.142;16.290;2023-10-13T04:22:42;17.00;99.90
14095;DHT22;18096;48.142;16.290;2023-10-13T04:25:22;16.90;99.90
14095;DHT22;18096;48.142;16.290;2023-10-13T04:27:53;16.90;99.90
14095;DHT22;18096;48.142;16.290;2023-10-13T04:30:51;16.90;99.90
14095;DHT22;18096;48.142;16.290;2023-10-13T04:33:23;16.90;99.90
14095;DHT22;18096;48.142;16.290;2023-10-13T04:38:41;16.90;99.90
14095;DHT22;18096;48.142;16.290;2023-10-13T04:41:27;16.90;99.90
14095;DHT22;18096;48.142;16.290;2023-10-13T04:44:18;16.90;99.90
14095;DHT22;18096;48.142;16.290;2023-10-13T04:47:02;16.90;99.90
14095;DHT22;18096;48.142;16.290;2023-10-13T04:49:30;17.00;99.90
14095;DHT22;18096;48.142;16.290;2023-10-13T04:52:16;17.00;99.90
14095;DHT22;18096;48.142;16.290;2023-10-13T04:55:00;17.00;99.90
14095;DHT22;18096;48.142;16.290;2023-10-13T04:57:35;17.00;99.90
14095;DHT22;18096;48.142;16.290;2023-10-13T05:00:13;17.00;99.90
14095;DHT22;18096;48.142;16.290;2023-10-13T05:02:45;17.00;99.90
14095;DHT22;18096;48.142;16.290;2023-10-13T05:05:21;17.00;99.90
14095;DHT22;18096;48.142;16.290;2023-10-13T05:08:05;17.00;99.90
14095;DHT22;18096;48.142;16.290;2023-10-13T05:10:49;17.00;99.90
14095;DHT22;18096;48.142;16.290;2023-10-13T05:13:34;17.00;99.90
14095;DHT22;18096;48.142;16.290;2023-10-13T05:16:18;17.00;99.90
14095;DHT22;18096;48.142;16.290;2023-10-13T05:19:02;17.00;99.90
14095;DHT22;18096;48.142;16.290;2023-10-13T05:21:46;17.00;99.90
14095;DHT22;18096;48.142;16.290;2023-10-13T05:24:30;17.00;99.90
14095;DHT22;18096;48.142;16.290;2023-10-13T05:27:14;17.00;99.90
14095;DHT22;18096;48.142;16.290;2023-10-13T05:29:58;17.00;99.90
14095;DHT22;18096;48.142;16.290;2023-10-13T05:32:42;16.90;99.90
14095;DHT22;18096;48.142;16.290;2023-10-13T05:35:26;16.90;99.90
14095;DHT22;18096;48.142;16.290;2023-10-13T05:38:10;16.90;99.90
14095;DHT22;18096;48.142;16.290;2023-10-13T05:41:02;16.90;99.90
14095;DHT22;18096;48.142;16.290;2023-10-13T05:43:47;16.90;99.90
14095;DHT22;18096;48.142;16.290;2023-10-13T05:46:32;16.90;99.90
14095;DHT22;18096;48.142;16.290;2023-10-13T05:49:15;16.80;99.90
14095;DHT22;18096;48.142;16.290;2023-10-13T05:51:40;16.80;99.90
14095;DHT22;18096;48.142;16.290;2023-10-13T05:54:18;16.80;99.90
14095;DHT22;18096;48.142;16.290;2023-10-13T05:56:50;16.80;99.90
14095;DHT22;18096;48.142;16.290;2023-10-13T05:59:36;16.90;99.90
14095;DHT22;18096;48.142;16.290;2023-10-13T06:02:22;16.90;99.90
14095;DHT22;18096;48.142;16.290;2023-10-13T06:05:12;16.90;99.90
14095;DHT22;18096;48.142;16.290;2023-10-13T06:07:57;16.90;99.90
14095;DHT22;18096;48.142;16.290;2023-10-13T06:10:42;16.90;99.90
14095;DHT22;18096;48.142;16.290;2023-10-13T06:13:27;16.90;99.90
14095;DHT22;18096;48.142;16.290;2023-10-13T06:16:17;17.00;99.90
14095;DHT22;18096;48.142;16.290;2023-10-13T06:19:02;17.00;99.90
14095;DHT22;18096;48.142;16.290;2023-10-13T06:21:47;17.00;99.90
14095;DHT22;18096;48.142;16.290;2023-10-13T06:24:31;17.00;99.90
14095;DHT22;18096;48.142;16.290;2023-10-13T06:27:16;17.10;99.90
14095;DHT22;18096;48.142;16.290;2023-10-13T06:30:01;17.10;99.90
14095;DHT22;18096;48.142;16.290;2023-10-13T06:32:27;17.10;99.90
14095;DHT22;18096;48.142;16.290;2023-10-13T06:34:56;17.10;99.90
14095;DHT22;18096;48.142;16.290;2023-10-13T06:37:31;17.10;99.90
14095;DHT22;18096;48.142;16.290;2023-10-13T06:40:00;17.10;99.90
14095;DHT22;18096;48.142;16.290;2023-10-13T06:42:33;17.20;99.90
14095;DHT22;18096;48.142;16.290;2023-10-13T06:45:08;17.20;99.90
14095;DHT22;18096;48.142;16.290;2023-10-13T06:47:37;17.20;99.90
14095;DHT22;18096;48.142;16.290;2023-10-13T06:50:12;17.20;99.90
14095;DHT22;18096;48.142;16.290;2023-10-13T06:52:50;17.20;99.90
14095;DHT22;18096;48.142;16.290;2023-10-13T06:55:17;17.20;99.90
14095;DHT22;18096;48.142;16.290;2023-10-13T06:57:49;17.30;99.90
14095;DHT22;18096;48.142;16.290;2023-10-13T07:00:17;17.30;99.90
14095;DHT22;18096;48.142;16.290;2023-10-13T07:02:54;17.30;99.90
14095;DHT22;18096;48.142;16.290;2023-10-13T07:05:30;17.30;99.90
14095;DHT22;18096;48.142;16.290;2023-10-13T07:07:57;17.30;99.90
14095;DHT22;18096;48.142;16.290;2023-10-13T07:10:25;17.40;99.90
14095;DHT22;18096;48.142;16.290;2023-10-13T07:12:55;17.40;99.90
14095;DHT22;18096;48.142;16.290;2023-10-13T07:15:25;17.40;99.90
14095;DHT22;18096;48.142;16.290;2023-10-13T07:17:53;17.50;99.90
14095;DHT22;18096;48.142;16.290;2023-10-13T07:20:25;17.50;99.90
14095;DHT22;18096;48.142;16.290;2023-10-13T07:22:59;17.60;99.90
14095;DHT22;18096;48.142;16.290;2023-10-13T07:25:37;17.60;99.90
14095;DHT22;18096;48.142;16.290;2023-10-13T07:28:07;17.70;99.90
14095;DHT22;18096;48.142;16.290;2023-10-13T07:30:36;17.70;99.90
14095;DHT22;18096;48.142;16.290;2023-10-13T07:33:07;17.80;99.90
14095;DHT22;18096;48.142;16.290;2023-10-13T07:35:38;17.80;99.90
14095;DHT22;18096;48.142;16.290;2023-10-13T07:38:04;17.90;99.90
14095;DHT22;18096;48.142;16.290;2023-10-13T07:40:33;17.90;99.90
14095;DHT22;18096;48.142;16.290;2023-10-13T07:42:58;18.00;99.90
14095;DHT22;18096;48.142;16.290;2023-10-13T07:45:29;18.00;99.90
14095;DHT22;18096;48.142;16.290;2023-10-13T07:48:06;18.00;99.90
14095;DHT22;18096;48.142;16.290;2023-10-13T07:50:41;18.10;99.90
14095;DHT22;18096;48.142;16.290;2023-10-13T07:53:07;18.10;99.90
14095;DHT22;18096;48.142;16.290;2023-10-13T07:55:49;18.20;99.90
14095;DHT22;18096;48.142;16.290;2023-10-13T07:58:24;18.20;99.90
14095;DHT22;18096;48.142;16.290;2023-10-13T08:00:53;18.30;99.90
14095;DHT22;18096;48.142;16.290;2023-10-13T08:03:25;18.40;99.90
14095;DHT22;18096;48.142;16.290;2023-10-13T08:06:13;18.40;99.90
14095;DHT22;18096;48.142;16.290;2023-10-13T08:08:39;18.50;99.90
14095;DHT22;18096;48.142;16.290;2023-10-13T08:14:01;18.60;99.90
14095;DHT22;18096;48.142;16.290;2023-10-13T08:16:36;18.70;99.90
14095;DHT22;18096;48.142;16.290;2023-10-13T08:19:12;18.70;99.90
14095;DHT22;18096;48.142;16.290;2023-10-13T08:21:44;18.80;99.90
14095;DHT22;18096;48.142;16.290;2023-10-13T08:24:23;18.90;99.90
14095;DHT22;18096;48.142;16.290;2023-10-13T08:27:12;18.90;99.90
14095;DHT22;18096;48.142;16.290;2023-10-13T08:29:57;18.90;99.90
14095;DHT22;18096;48.142;16.290;2023-10-13T08:34:56;19.00;99.90
14095;DHT22;18096;48.142;16.290;2023-10-13T08:37:35;19.00;99.90
14095;DHT22;18096;48.142;16.290;2023-10-13T08:40:24;19.00;99.90
14095;DHT22;18096;48.142;16.290;2023-10-13T08:43:12;19.10;99.90
14095;DHT22;18096;48.142;16.290;2023-10-13T08:45:40;19.10;99.90
14095;DHT22;18096;48.142;16.290;2023-10-13T08:48:07;19.20;99.90
14095;DHT22;18096;48.142;16.290;2023-10-13T08:50:52;19.30;99.90
14095;DHT22;18096;48.142;16.290;2023-10-13T08:53:28;19.30;99.90
14095;DHT22;18096;48.142;16.290;2023-10-13T08:56:00;19.40;99.90
14095;DHT22;18096;48.142;16.290;2023-10-13T08:58:45;19.50;99.90
14095;DHT22;18096;48.142;16.290;2023-10-13T09:01:26;19.60;99.90
14095;DHT22;18096;48.142;16.290;2023-10-13T09:04:08;19.60;99.90
14095;DHT22;18096;48.142;16.290;2023-10-13T09:06:56;19.70;99.90
14095;DHT22;18096;48.142;16.290;2023-10-13T09:09:28;19.80;99.90
14095;DHT22;18096;48.142;16.290;2023-10-13T09:14:55;20.00;99.90
14095;DHT22;18096;48.142;16.290;2023-10-13T09:17:28;20.10;99.90
14095;DHT22;18096;48.142;16.290;2023-10-13T09:20:03;20.20;99.90
14095;DHT22;18096;48.142;16.290;2023-10-13T09:22:51;20.20;99.90
14095;DHT22;18096;48.142;16.290;2023-10-13T09:25:29;20.30;99.90
14095;DHT22;18096;48.142;16.290;2023-10-13T09:28:00;20.40;99.90
14095;DHT22;18096;48.142;16.290;2023-10-13T09:30:26;20.60;99.90
14095;DHT22;18096;48.142;16.290;2023-10-13T09:33:03;20.70;99.90
14095;DHT22;18096;48.142;16.290;2023-10-13T09:35:44;20.70;99.90
14095;DHT22;18096;48.142;16.290;2023-10-13T09:38:19;20.80;99.90
14095;DHT22;18096;48.142;16.290;2023-10-13T09:40:46;21.00;99.90
14095;DHT22;18096;48.142;16.290;2023-10-13T09:43:18;21.10;99.90
14095;DHT22;18096;48.142;16.290;2023-10-13T09:45:48;21.10;99.90
14095;DHT22;18096;48.142;16.290;2023-10-13T09:48:49;21.20;99.90
14095;DHT22;18096;48.142;16.290;2023-10-13T09:51:30;21.30;99.90
14095;DHT22;18096;48.142;16.290;2023-10-13T09:54:10;21.30;99.90
14095;DHT22;18096;48.142;16.290;2023-10-13T09:56:55;21.40;99.90
14095;DHT22;18096;48.142;16.290;2023-10-13T09:59:24;21.40;99.90
14095;DHT22;18096;48.142;16.290;2023-10-13T10:02:01;21.40;99.90
14095;DHT22;18096;48.142;16.290;2023-10-13T10:04:34;21.40;99.90
14095;DHT22;18096;48.142;16.290;2023-10-13T10:07:09;21.40;99.90
14095;DHT22;18096;48.142;16.290;2023-10-13T10:09:35;21.50;99.90
14095;DHT22;18096;48.142;16.290;2023-10-13T10:15:29;21.50;99.90
14095;DHT22;18096;48.142;16.290;2023-10-13T10:18:02;21.60;99.90
14095;DHT22;18096;48.142;16.290;2023-10-13T10:20:32;21.70;99.90
14095;DHT22;18096;48.142;16.290;2023-10-13T10:22:59;21.70;99.90
14095;DHT22;18096;48.142;16.290;2023-10-13T10:25:32;21.70;99.90
14095;DHT22;18096;48.142;16.290;2023-10-13T10:28:07;21.70;99.90
14095;DHT22;18096;48.142;16.290;2023-10-13T10:30:35;21.70;99.90
14095;DHT22;18096;48.142;16.290;2023-10-13T10:33:05;21.70;99.90
14095;DHT22;18096;48.142;16.290;2023-10-13T10:35:57;21.80;99.90
14095;DHT22;18096;48.142;16.290;2023-10-13T10:38:24;21.80;99.90
14095;DHT22;18096;48.142;16.290;2023-10-13T10:40:54;21.80;99.90
14095;DHT22;18096;48.142;16.290;2023-10-13T10:45:52;22.00;99.90
14095;DHT22;18096;48.142;16.290;2023-10-13T10:48:18;22.20;99.90
14095;DHT22;18096;48.142;16.290;2023-10-13T10:50:51;22.30;99.90
14095;DHT22;18096;48.142;16.290;2023-10-13T10:53:20;22.30;99.90
14095;DHT22;18096;48.142;16.290;2023-10-13T10:55:48;22.30;99.90
14095;DHT22;18096;48.142;16.290;2023-10-13T10:58:13;22.50;99.90
14095;DHT22;18096;48.142;16.290;2023-10-13T11:01:07;22.50;99.90
14095;DHT22;18096;48.142;16.290;2023-10-13T11:03:37;22.70;99.90
14095;DHT22;18096;48.142;16.290;2023-10-13T11:06:12;22.80;99.90
14095;DHT22;18096;48.142;16.290;2023-10-13T11:08:42;22.90;99.90
14095;DHT22;18096;48.142;16.290;2023-10-13T11:11:15;22.90;99.90
14095;DHT22;18096;48.142;16.290;2023-10-13T11:13:46;23.00;99.90
14095;DHT22;18096;48.142;16.290;2023-10-13T11:16:23;23.10;99.90
14095;DHT22;18096;48.142;16.290;2023-10-13T11:19:03;23.20;99.90
14095;DHT22;18096;48.142;16.290;2023-10-13T11:21:31;23.10;99.90
14095;DHT22;18096;48.142;16.290;2023-10-13T11:23:59;23.10;99.90
14095;DHT22;18096;48.142;16.290;2023-10-13T11:26:40;23.00;99.90
14095;DHT22;18096;48.142;16.290;2023-10-13T11:29:15;23.00;99.90
14095;DHT22;18096;48.142;16.290;2023-10-13T11:31:47;22.90;99.90
14095;DHT22;18096;48.142;16.290;2023-10-13T11:34:19;22.90;99.90
14095;DHT22;18096;48.142;16.290;2023-10-13T11:36:45;23.00;99.90
14095;DHT22;18096;48.142;16.290;2023-10-13T11:39:10;23.00;99.90
14095;DHT22;18096;48.142;16.290;2023-10-13T11:41:43;23.00;99.90
14095;DHT22;18096;48.142;16.290;2023-10-13T11:44:16;23.00;99.90
14095;DHT22;18096;48.142;16.290;2023-10-13T11:46:44;23.00;99.90
14095;DHT22;18096;48.142;16.290;2023-10-13T11:49:13;23.00;99.90
14095;DHT22;18096;48.142;16.290;2023-10-13T11:51:39;23.00;99.70
14095;DHT22;18096;48.142;16.290;2023-10-13T11:54:19;23.00;99.10
14095;DHT22;18096;48.142;16.290;2023-10-13T11:56:48;23.00;98.80
14095;DHT22;18096;48.142;16.290;2023-10-13T11:59:14;23.00;98.70
14095;DHT22;18096;48.142;16.290;2023-10-13T12:01:50;23.00;98.90
14095;DHT22;18096;48.142;16.290;2023-10-13T12:04:54;23.00;99.90
14095;DHT22;18096;48.142;16.290;2023-10-13T12:07:22;23.00;99.90
14095;DHT22;18096;48.142;16.290;2023-10-13T12:10:06;23.00;99.90
14095;DHT22;18096;48.142;16.290;2023-10-13T12:12:40;23.00;98.80
14095;DHT22;18096;48.142;16.290;2023-10-13T12:15:08;23.00;97.60
14095;DHT22;18096;48.142;16.290;2023-10-13T12:17:35;23.10;98.50
14095;DHT22;18096;48.142;16.290;2023-10-13T12:20:08;23.10;98.50
14095;DHT22;18096;48.142;16.290;2023-10-13T12:22:37;23.10;99.20
14095;DHT22;18096;48.142;16.290;2023-10-13T12:25:16;23.10;98.50
14095;DHT22;18096;48.142;16.290;2023-10-13T12:27:52;23.10;98.60
14095;DHT22;18096;48.142;16.290;2023-10-13T12:30:22;23.10;98.30
14095;DHT22;18096;48.142;16.290;2023-10-13T12:33:01;23.10;98.50
14095;DHT22;18096;48.142;16.290;2023-10-13T12:35:41;23.10;98.60
14095;DHT22;18096;48.142;16.290;2023-10-13T12:38:24;23.20;98.50
14095;DHT22;18096;48.142;16.290;2023-10-13T12:41:05;23.30;99.20
14095;DHT22;18096;48.142;16.290;2023-10-13T12:43:50;23.30;99.20
14095;DHT22;18096;48.142;16.290;2023-10-13T12:46:33;23.30;99.20
14095;DHT22;18096;48.142;16.290;2023-10-13T12:49:18;23.50;98.80
14095;DHT22;18096;48.142;16.290;2023-10-13T12:52:02;23.70;99.20
14095;DHT22;18096;48.142;16.290;2023-10-13T12:54:27;23.80;99.50
14095;DHT22;18096;48.142;16.290;2023-10-13T12:57:01;23.80;99.40
14095;DHT22;18096;48.142;16.290;2023-10-13T12:59:26;23.70;99.70
14095;DHT22;18096;48.142;16.290;2023-10-13T13:01:53;23.70;99.90
14095;DHT22;18096;48.142;16.290;2023-10-13T13:04:19;23.80;98.50
14095;DHT22;18096;48.142;16.290;2023-10-13T13:06:49;23.90;98.00
14095;DHT22;18096;48.142;16.290;2023-10-13T13:09:15;24.00;99.00
14095;DHT22;18096;48.142;16.290;2023-10-13T13:11:41;24.00;98.90
14095;DHT22;18096;48.142;16.290;2023-10-13T13:14:07;23.90;98.70
14095;DHT22;18096;48.142;16.290;2023-10-13T13:16:34;23.90;97.50
14095;DHT22;18096;48.142;16.290;2023-10-13T13:19:00;24.00;98.00
14095;DHT22;18096;48.142;16.290;2023-10-13T13:21:29;24.10;97.10
14095;DHT22;18096;48.142;16.290;2023-10-13T13:23:54;24.20;97.40
14095;DHT22;18096;48.142;16.290;2023-10-13T13:26:21;24.20;96.50
14095;DHT22;18096;48.142;16.290;2023-10-13T13:28:48;24.30;97.00
14095;DHT22;18096;48.142;16.290;2023-10-13T13:31:21;24.20;97.00
14095;DHT22;18096;48.142;16.290;2023-10-13T13:33:52;24.20;97.30
14095;DHT22;18096;48.142;16.290;2023-10-13T13:36:17;24.10;96.90
14095;DHT22;18096;48.142;16.290;2023-10-13T13:38:45;24.10;96.80
14095;DHT22;18096;48.142;16.290;2023-10-13T13:41:25;24.10;96.20
14095;DHT22;18096;48.142;16.290;2023-10-13T13:43:51;24.10;96.10
14095;DHT22;18096;48.142;16.290;2023-10-13T13:46:24;24.20;96.30
14095;DHT22;18096;48.142;16.290;2023-10-13T13:48:53;24.20;97.00
14095;DHT22;18096;48.142;16.290;2023-10-13T13:51:28;24.10;96.60
14095;DHT22;18096;48.142;16.290;2023-10-13T13:53:55;24.10;97.30
14095;DHT22;18096;48.142;16.290;2023-10-13T13:56:22;24.00;97.60
14095;DHT22;18096;48.142;16.290;2023-10-13T13:58:51;24.00;97.50
14095;DHT22;18096;48.142;16.290;2023-10-13T14:01:17;23.90;97.60
14095;DHT22;18096;48.142;16.290;2023-10-13T14:04:03;23.90;97.70
14095;DHT22;18096;48.142;16.290;2023-10-13T14:06:31;23.80;97.80
14095;DHT22;18096;48.142;16.290;2023-10-13T14:08:59;23.70;98.00
14095;DHT22;18096;48.142;16.290;2023-10-13T14:11:29;23.70;98.20
14095;DHT22;18096;48.142;16.290;2023-10-13T14:14:15;23.70;98.20
14095;DHT22;18096;48.142;16.290;2023-10-13T14:16:49;23.60;98.50
14095;DHT22;18096;48.142;16.290;2023-10-13T14:19:16;23.60;98.50
14095;DHT22;18096;48.142;16.290;2023-10-13T14:21:52;23.50;98.30
14095;DHT22;18096;48.142;16.290;2023-10-13T14:24:19;23.40;98.90
14095;DHT22;18096;48.142;16.290;2023-10-13T14:26:53;23.40;98.30
14095;DHT22;18096;48.142;16.290;2023-10-13T14:29:19;23.40;98.00
14095;DHT22;18096;48.142;16.290;2023-10-13T14:31:45;23.40;98.40
14095;DHT22;18096;48.142;16.290;2023-10-13T14:34:14;23.40;99.40
14095;DHT22;18096;48.142;16.290;2023-10-13T14:36:40;23.40;99.00
14095;DHT22;18096;48.142;16.290;2023-10-13T14:39:06;23.40;98.30
14095;DHT22;18096;48.142;16.290;2023-10-13T14:41:38;23.40;98.80
14095;DHT22;18096;48.142;16.290;2023-10-13T14:44:04;23.40;98.60
14095;DHT22;18096;48.142;16.290;2023-10-13T14:46:33;23.40;98.70
14095;DHT22;18096;48.142;16.290;2023-10-13T14:49:05;23.30;98.70
14095;DHT22;18096;48.142;16.290;2023-10-13T14:51:31;23.30;98.50
14095;DHT22;18096;48.142;16.290;2023-10-13T14:53:58;23.30;98.50
14095;DHT22;18096;48.142;16.290;2023-10-13T14:56:29;23.30;99.00
14095;DHT22;18096;48.142;16.290;2023-10-13T14:58:56;23.20;99.00
14095;DHT22;18096;48.142;16.290;2023-10-13T15:01:23;23.20;99.10
14095;DHT22;18096;48.142;16.290;2023-10-13T15:03:52;23.20;99.10
14095;DHT22;18096;48.142;16.290;2023-10-13T15:06:22;23.10;99.10
14095;DHT22;18096;48.142;16.290;2023-10-13T15:08:58;23.10;99.20
14095;DHT22;18096;48.142;16.290;2023-10-13T15:11:24;23.00;99.30
14095;DHT22;18096;48.142;16.290;2023-10-13T15:14:04;23.00;99.30
14095;DHT22;18096;48.142;16.290;2023-10-13T15:16:33;23.00;99.60
14095;DHT22;18096;48.142;16.290;2023-10-13T15:19:02;23.00;99.80
14095;DHT22;18096;48.142;16.290;2023-10-13T15:21:32;22.90;99.90
14095;DHT22;18096;48.142;16.290;2023-10-13T15:24:04;22.90;99.70
14095;DHT22;18096;48.142;16.290;2023-10-13T15:26:42;22.80;99.70
14095;DHT22;18096;48.142;16.290;2023-10-13T15:29:16;22.80;99.90
14095;DHT22;18096;48.142;16.290;2023-10-13T15:31:45;22.80;99.90
14095;DHT22;18096;48.142;16.290;2023-10-13T15:34:27;22.70;99.90
14095;DHT22;18096;48.142;16.290;2023-10-13T15:36:54;22.70;99.90
14095;DHT22;18096;48.142;16.290;2023-10-13T15:39:21;22.70;99.90
14095;DHT22;18096;48.142;16.290;2023-10-13T15:41:50;22.60;99.90
14095;DHT22;18096;48.142;16.290;2023-10-13T15:44:20;22.60;99.90
14095;DHT22;18096;48.142;16.290;2023-10-13T15:46:52;22.60;99.90
14095;DHT22;18096;48.142;16.290;2023-10-13T15:49:18;22.50;99.90
14095;DHT22;18096;48.142;16.290;2023-10-13T15:51:43;22.50;99.90
14095;DHT22;18096;48.142;16.290;2023-10-13T15:54:10;22.40;99.90
14095;DHT22;18096;48.142;16.290;2023-10-13T15:56:45;22.40;99.90
14095;DHT22;18096;48.142;16.290;2023-10-13T15:59:12;22.40;99.90
14095;DHT22;18096;48.142;16.290;2023-10-13T16:01:38;22.30;99.90
14095;DHT22;18096;48.142;16.290;2023-10-13T16:04:09;22.30;99.90
14095;DHT22;18096;48.142;16.290;2023-10-13T16:06:43;22.20;99.90
14095;DHT22;18096;48.142;16.290;2023-10-13T16:09:12;22.20;99.90
14095;DHT22;18096;48.142;16.290;2023-10-13T16:11:42;22.10;99.90
14095;DHT22;18096;48.142;16.290;2023-10-13T16:14:08;22.10;99.90